Chicago Rockford International Airport
KRFD : now visible

Airfield :











YOU CAN JOIN US ON...

 
LOGIN :

Register | Disclaimer

   EN    FR    IT 

 









Legend :    VFR   Marginal VFR   IFR   Intensive IFR   Very Intensive IFR
Visi :
Ceiling :
>= 8 km
>= 3000ft
5 to 8 km
1000 to 3000 ft
1500m to 5 km
500 to 1000 ft
800 to 1500m
200 to 500 ft
< 800m
< 200 ft
Symbols :   Thunderstorms  Fog  Heavy snow  Heavy precipitations  Wind > 20 kt






- Airport Elevation : 742 ft
- IATA code : RFD


KRFD - Chicago Rockford International

CURRENT METAR :
  • 071454Z 12005KT 10SM CLR 24/14 A3017 RMK AO2 SLP212 T02440144 58004 $

EXPIRED METARs :
  • 071354Z 00000KT 10SM CLR 22/15 A3018 RMK AO2 SLP215 T02220150 $
  • 071254Z 11003KT 10SM CLR 18/14 A3019 RMK AO2 SLP219 T01780144 $

TAF KRFD
Valid from the 07 at 15:00 until the 08 at 12:00 UTC


071500Z 0715/0812 VRB04KT P6SM FEW060
FM071700 17010KT P6SM FEW060
FM080100 16005KT P6SM SCT250
KZAU FIR / North America



MET'MAP, your aeronautical weather chart ! - Copyright ORBIFLY December 2007 - Disclaimer

ORBIFLY MET'MAP TEAM :

Programming & Development : Alexandra Zaïnal
Concept & original design : Baudouin d'Aumeries
Assistance for programming : Marc-Olivier Méhu
Technical & hardware support : Manuel Goepfert

Contact : metmap@orbifly.com




SOURCES & CREDITS :

   NOAA       Earth
Advisory